Fecha, hora, temperatura, viento dirección y velocidad, humedad y presión.

  • 19-03-2019 23:00:00 | -2.90°C | Norte |5.00 km/h | 74.00% | 835.00 hPa
  • 19-03-2019 22:00:00 | -2.80°C | Norte |5.00 km/h | 74.00% | 834.50 hPa
  • 19-03-2019 21:00:00 | -2.50°C | Norte |6.00 km/h | 76.00% | 834.20 hPa
  • 19-03-2019 20:00:00 | -2.30°C | Norte |6.00 km/h | 72.00% | 833.80 hPa
  • 19-03-2019 19:00:00 | -1.70°C | Noroeste |9.00 km/h | 68.00% | 833.30 hPa
  • 19-03-2019 18:00:00 | 0.00°C | Norte |8.00 km/h | 65.00% | 832.50 hPa
  • 19-03-2019 17:00:00 | 2.30°C | Noroeste |12.00 km/h | 51.00% | 831.90 hPa
  • 19-03-2019 16:00:00 | 2.90°C | Noroeste |14.00 km/h | 47.00% | 831.70 hPa
  • 19-03-2019 15:00:00 | 2.20°C | Noroeste |11.00 km/h | 55.00% | 831.60 hPa
  • 19-03-2019 14:00:00 | 2.60°C | Noroeste |13.00 km/h | 52.00% | 831.40 hPa
  • 19-03-2019 13:00:00 | 0.70°C | Noroeste |12.00 km/h | 55.00% | 831.70 hPa
  • 19-03-2019 12:00:00 | 0.00°C | Oeste |11.00 km/h | 58.00% | 831.50 hPa
  • 19-03-2019 11:00:00 | -0.50°C | Oeste |11.00 km/h | 65.00% | 831.00 hPa
  • 19-03-2019 10:00:00 | -1.10°C | Oeste |12.00 km/h | 67.00% | 830.80 hPa
  • 19-03-2019 09:00:00 | -2.30°C | Norte |3.00 km/h | 77.00% | 830.60 hPa
  • 19-03-2019 08:00:00 | -2.50°C | Oeste |6.00 km/h | 83.00% | 830.50 hPa
  • 19-03-2019 07:00:00 | -2.90°C | Sur |4.00 km/h | 81.00% | 830.00 hPa
  • 19-03-2019 06:00:00 | -2.40°C | Oeste |7.00 km/h | 72.00% | 829.70 hPa
  • 19-03-2019 05:00:00 | -2.20°C | Oeste |5.00 km/h | 74.00% | 830.00 hPa
  • 19-03-2019 04:00:00 | -2.20°C | Oeste |5.00 km/h | 71.00% | 830.20 hPa
  • 19-03-2019 03:00:00 | -2.10°C | Sudoeste |5.00 km/h | 74.00% | 830.70 hPa
  • 19-03-2019 02:00:00 | -2.50°C | Sudoeste |2.00 km/h | 82.00% | 831.10 hPa
  • 19-03-2019 01:00:00 | -2.10°C | Sudeste |2.00 km/h | 78.00% | 831.40 hPa
  • 19-03-2019 00:00:00 | -2.10°C | Sudoeste |5.00 km/h | 72.00% | 831.60 hPa
    • diseño web asturias Información sobre el estado de las mareas, altura de la marejada, temperatura del agua y otros datos de Gijón en Asturias.

      Surf Gijón